sensor_id;sensor_type;location;lat;lon;timestamp;temperature;humidity
10662;DHT22;5379;51.034;7.006;2023-03-23T00:02:23;18.10;99.90
10662;DHT22;5379;51.034;7.006;2023-03-23T00:04:51;18.10;99.90
10662;DHT22;5379;51.034;7.006;2023-03-23T00:07:20;17.90;99.90
10662;DHT22;5379;51.034;7.006;2023-03-23T00:09:47;18.10;99.90
10662;DHT22;5379;51.034;7.006;2023-03-23T00:12:19;18.10;99.90
10662;DHT22;5379;51.034;7.006;2023-03-23T00:14:47;18.10;99.90
10662;DHT22;5379;51.034;7.006;2023-03-23T00:17:14;18.00;99.90
10662;DHT22;5379;51.034;7.006;2023-03-23T00:19:41;18.00;99.90
10662;DHT22;5379;51.034;7.006;2023-03-23T00:22:13;18.00;99.90
10662;DHT22;5379;51.034;7.006;2023-03-23T00:24:42;18.20;99.90
10662;DHT22;5379;51.034;7.006;2023-03-23T00:27:09;18.40;99.90
10662;DHT22;5379;51.034;7.006;2023-03-23T00:29:38;18.40;99.90
10662;DHT22;5379;51.034;7.006;2023-03-23T00:32:05;18.30;99.90
10662;DHT22;5379;51.034;7.006;2023-03-23T00:34:38;18.10;99.90
10662;DHT22;5379;51.034;7.006;2023-03-23T00:37:06;18.00;99.90
10662;DHT22;5379;51.034;7.006;2023-03-23T00:39:34;17.90;99.90
10662;DHT22;5379;51.034;7.006;2023-03-23T00:42:04;17.90;99.90
10662;DHT22;5379;51.034;7.006;2023-03-23T00:44:32;17.80;99.90
10662;DHT22;5379;51.034;7.006;2023-03-23T00:47:00;17.80;99.90
10662;DHT22;5379;51.034;7.006;2023-03-23T00:49:28;17.80;99.90
10662;DHT22;5379;51.034;7.006;2023-03-23T00:51:57;17.70;99.90
10662;DHT22;5379;51.034;7.006;2023-03-23T00:54:25;17.80;99.90
10662;DHT22;5379;51.034;7.006;2023-03-23T00:56:53;17.80;99.90
10662;DHT22;5379;51.034;7.006;2023-03-23T00:59:22;17.80;99.90
10662;DHT22;5379;51.034;7.006;2023-03-23T05:31:13;16.40;99.90
10662;DHT22;5379;51.034;7.006;2023-03-23T05:33:40;16.40;99.90
10662;DHT22;5379;51.034;7.006;2023-03-23T05:36:07;16.40;99.90
10662;DHT22;5379;51.034;7.006;2023-03-23T05:38:36;16.40;99.90
10662;DHT22;5379;51.034;7.006;2023-03-23T05:41:06;16.30;99.90
10662;DHT22;5379;51.034;7.006;2023-03-23T05:43:33;16.30;99.90
10662;DHT22;5379;51.034;7.006;2023-03-23T05:45:59;16.30;99.90
10662;DHT22;5379;51.034;7.006;2023-03-23T05:48:28;16.30;99.90
10662;DHT22;5379;51.034;7.006;2023-03-23T05:50:55;16.30;99.90
10662;DHT22;5379;51.034;7.006;2023-03-23T05:53:22;16.30;99.90
10662;DHT22;5379;51.034;7.006;2023-03-23T05:55:50;16.30;99.90
10662;DHT22;5379;51.034;7.006;2023-03-23T05:58:17;16.30;99.90
10662;DHT22;5379;51.034;7.006;2023-03-23T06:00:44;16.40;99.90
10662;DHT22;5379;51.034;7.006;2023-03-23T06:03:12;16.40;99.90
10662;DHT22;5379;51.034;7.006;2023-03-23T06:05:43;16.60;99.90
10662;DHT22;5379;51.034;7.006;2023-03-23T06:08:10;16.60;99.90
10662;DHT22;5379;51.034;7.006;2023-03-23T06:10:37;16.50;99.90
10662;DHT22;5379;51.034;7.006;2023-03-23T06:13:05;16.50;99.90
10662;DHT22;5379;51.034;7.006;2023-03-23T06:15:32;16.40;99.90
10662;DHT22;5379;51.034;7.006;2023-03-23T06:17:59;16.50;99.90
10662;DHT22;5379;51.034;7.006;2023-03-23T06:20:26;16.60;99.90
10662;DHT22;5379;51.034;7.006;2023-03-23T06:22:54;16.70;99.90
10662;DHT22;5379;51.034;7.006;2023-03-23T06:25:22;16.70;99.90
10662;DHT22;5379;51.034;7.006;2023-03-23T06:27:50;16.80;99.90
10662;DHT22;5379;51.034;7.006;2023-03-23T06:30:18;16.80;99.90
10662;DHT22;5379;51.034;7.006;2023-03-23T06:32:45;16.80;99.90
10662;DHT22;5379;51.034;7.006;2023-03-23T06:35:13;16.70;99.90
10662;DHT22;5379;51.034;7.006;2023-03-23T06:37:40;16.80;99.90
10662;DHT22;5379;51.034;7.006;2023-03-23T06:40:09;16.80;99.90
10662;DHT22;5379;51.034;7.006;2023-03-23T06:42:37;16.80;99.90
10662;DHT22;5379;51.034;7.006;2023-03-23T06:45:05;16.80;99.90
10662;DHT22;5379;51.034;7.006;2023-03-23T06:47:33;16.80;99.90
10662;DHT22;5379;51.034;7.006;2023-03-23T06:50:00;16.80;99.90
10662;DHT22;5379;51.034;7.006;2023-03-23T06:52:27;16.80;99.90
10662;DHT22;5379;51.034;7.006;2023-03-23T06:54:54;16.90;99.90
10662;DHT22;5379;51.034;7.006;2023-03-23T06:57:22;17.00;99.90
10662;DHT22;5379;51.034;7.006;2023-03-23T06:59:49;17.00;99.90
10662;DHT22;5379;51.034;7.006;2023-03-23T07:02:16;17.10;99.90
10662;DHT22;5379;51.034;7.006;2023-03-23T07:04:43;17.10;99.90
10662;DHT22;5379;51.034;7.006;2023-03-23T07:07:11;17.10;99.90
10662;DHT22;5379;51.034;7.006;2023-03-23T07:09:40;17.10;99.90
10662;DHT22;5379;51.034;7.006;2023-03-23T07:12:07;17.20;99.90
10662;DHT22;5379;51.034;7.006;2023-03-23T07:14:36;17.20;99.90
10662;DHT22;5379;51.034;7.006;2023-03-23T07:17:04;17.30;99.90
10662;DHT22;5379;51.034;7.006;2023-03-23T07:19:31;17.30;99.90
10662;DHT22;5379;51.034;7.006;2023-03-23T07:21:58;17.30;99.90
10662;DHT22;5379;51.034;7.006;2023-03-23T07:24:25;17.30;99.90
10662;DHT22;5379;51.034;7.006;2023-03-23T07:26:53;17.30;99.90
10662;DHT22;5379;51.034;7.006;2023-03-23T07:29:20;17.40;99.90
10662;DHT22;5379;51.034;7.006;2023-03-23T07:31:48;17.30;99.90
10662;DHT22;5379;51.034;7.006;2023-03-23T07:34:15;17.30;99.90
10662;DHT22;5379;51.034;7.006;2023-03-23T07:36:42;17.10;99.90
10662;DHT22;5379;51.034;7.006;2023-03-23T07:39:09;17.20;99.90
10662;DHT22;5379;51.034;7.006;2023-03-23T07:41:37;17.30;99.90
10662;DHT22;5379;51.034;7.006;2023-03-23T07:44:05;17.50;99.90
10662;DHT22;5379;51.034;7.006;2023-03-23T07:46:32;17.40;99.90
10662;DHT22;5379;51.034;7.006;2023-03-23T07:49:00;17.70;99.90
10662;DHT22;5379;51.034;7.006;2023-03-23T07:51:30;17.80;99.90
10662;DHT22;5379;51.034;7.006;2023-03-23T07:53:57;17.80;99.90
10662;DHT22;5379;51.034;7.006;2023-03-23T07:56:24;17.80;99.90
10662;DHT22;5379;51.034;7.006;2023-03-23T07:58:51;18.00;99.90
10662;DHT22;5379;51.034;7.006;2023-03-23T08:01:18;17.80;99.90
10662;DHT22;5379;51.034;7.006;2023-03-23T08:03:45;17.80;99.90
10662;DHT22;5379;51.034;7.006;2023-03-23T08:06:14;17.70;99.90
10662;DHT22;5379;51.034;7.006;2023-03-23T08:08:40;17.80;99.90
10662;DHT22;5379;51.034;7.006;2023-03-23T08:11:08;17.90;99.90
10662;DHT22;5379;51.034;7.006;2023-03-23T08:13:35;17.90;99.90
10662;DHT22;5379;51.034;7.006;2023-03-23T08:16:02;18.00;99.90
10662;DHT22;5379;51.034;7.006;2023-03-23T08:18:30;18.10;99.90
10662;DHT22;5379;51.034;7.006;2023-03-23T08:21:00;17.90;99.90
10662;DHT22;5379;51.034;7.006;2023-03-23T08:23:28;18.00;99.90
10662;DHT22;5379;51.034;7.006;2023-03-23T08:25:56;18.30;99.90
10662;DHT22;5379;51.034;7.006;2023-03-23T08:28:23;18.20;99.90
10662;DHT22;5379;51.034;7.006;2023-03-23T08:30:50;18.00;99.90
10662;DHT22;5379;51.034;7.006;2023-03-23T08:33:18;17.80;99.90
10662;DHT22;5379;51.034;7.006;2023-03-23T08:35:54;17.90;99.90
10662;DHT22;5379;51.034;7.006;2023-03-23T08:38:22;17.90;99.90
10662;DHT22;5379;51.034;7.006;2023-03-23T08:40:51;17.90;99.90
10662;DHT22;5379;51.034;7.006;2023-03-23T08:43:19;17.90;99.90
10662;DHT22;5379;51.034;7.006;2023-03-23T08:45:47;18.60;99.90
10662;DHT22;5379;51.034;7.006;2023-03-23T08:48:13;18.60;99.70
10662;DHT22;5379;51.034;7.006;2023-03-23T08:50:40;18.40;99.90
10662;DHT22;5379;51.034;7.006;2023-03-23T08:53:07;18.30;99.90
10662;DHT22;5379;51.034;7.006;2023-03-23T08:55:34;18.40;99.90
10662;DHT22;5379;51.034;7.006;2023-03-23T08:58:03;18.60;99.90
10662;DHT22;5379;51.034;7.006;2023-03-23T09:00:30;18.50;99.90
10662;DHT22;5379;51.034;7.006;2023-03-23T09:02:58;18.40;99.50
10662;DHT22;5379;51.034;7.006;2023-03-23T09:05:27;18.20;99.60
10662;DHT22;5379;51.034;7.006;2023-03-23T09:07:55;18.20;99.90
10662;DHT22;5379;51.034;7.006;2023-03-23T09:10:25;18.00;99.90
10662;DHT22;5379;51.034;7.006;2023-03-23T09:12:53;18.20;99.70
10662;DHT22;5379;51.034;7.006;2023-03-23T09:15:23;18.30;99.90
10662;DHT22;5379;51.034;7.006;2023-03-23T09:17:51;18.20;99.90
10662;DHT22;5379;51.034;7.006;2023-03-23T09:20:22;18.10;99.90
10662;DHT22;5379;51.034;7.006;2023-03-23T09:22:52;18.10;99.90
10662;DHT22;5379;51.034;7.006;2023-03-23T09:25:22;18.00;99.70
10662;DHT22;5379;51.034;7.006;2023-03-23T09:27:52;18.00;99.70
10662;DHT22;5379;51.034;7.006;2023-03-23T09:30:24;18.10;99.60
10662;DHT22;5379;51.034;7.006;2023-03-23T09:32:52;18.10;99.90
10662;DHT22;5379;51.034;7.006;2023-03-23T09:35:20;18.20;99.70
10662;DHT22;5379;51.034;7.006;2023-03-23T09:37:49;18.30;99.90
10662;DHT22;5379;51.034;7.006;2023-03-23T09:40:20;18.40;99.70
10662;DHT22;5379;51.034;7.006;2023-03-23T09:42:58;18.40;99.70
10662;DHT22;5379;51.034;7.006;2023-03-23T09:45:35;18.40;99.90
10662;DHT22;5379;51.034;7.006;2023-03-23T09:48:19;18.60;99.20
10662;DHT22;5379;51.034;7.006;2023-03-23T09:50:55;18.90;99.90
10662;DHT22;5379;51.034;7.006;2023-03-23T09:53:30;19.00;99.70
10662;DHT22;5379;51.034;7.006;2023-03-23T09:56:01;19.20;98.40
10662;DHT22;5379;51.034;7.006;2023-03-23T09:58:32;19.10;98.80
10662;DHT22;5379;51.034;7.006;2023-03-23T10:01:06;19.10;98.20
10662;DHT22;5379;51.034;7.006;2023-03-23T10:03:37;19.50;99.20
10662;DHT22;5379;51.034;7.006;2023-03-23T10:06:08;19.20;97.30
10662;DHT22;5379;51.034;7.006;2023-03-23T10:08:39;19.40;98.50
10662;DHT22;5379;51.034;7.006;2023-03-23T10:11:10;19.30;97.60
10662;DHT22;5379;51.034;7.006;2023-03-23T10:14:07;19.30;97.30
10662;DHT22;5379;51.034;7.006;2023-03-23T10:16:40;19.30;97.20
10662;DHT22;5379;51.034;7.006;2023-03-23T10:19:12;19.10;97.30
10662;DHT22;5379;51.034;7.006;2023-03-23T10:21:50;19.40;97.50
10662;DHT22;5379;51.034;7.006;2023-03-23T10:24:21;19.00;97.10
10662;DHT22;5379;51.034;7.006;2023-03-23T10:26:59;19.00;97.70
10662;DHT22;5379;51.034;7.006;2023-03-23T10:29:29;19.20;98.10
10662;DHT22;5379;51.034;7.006;2023-03-23T10:32:00;19.10;97.20
10662;DHT22;5379;51.034;7.006;2023-03-23T10:34:32;18.70;97.70
10662;DHT22;5379;51.034;7.006;2023-03-23T10:37:04;18.50;98.40
10662;DHT22;5379;51.034;7.006;2023-03-23T10:39:37;18.70;98.40
10662;DHT22;5379;51.034;7.006;2023-03-23T10:42:05;18.60;99.90
10662;DHT22;5379;51.034;7.006;2023-03-23T10:44:33;18.50;99.90
10662;DHT22;5379;51.034;7.006;2023-03-23T10:47:04;18.40;99.90
10662;DHT22;5379;51.034;7.006;2023-03-23T10:49:37;18.50;99.90
10662;DHT22;5379;51.034;7.006;2023-03-23T10:52:12;18.70;99.90
10662;DHT22;5379;51.034;7.006;2023-03-23T10:54:51;18.20;99.90
10662;DHT22;5379;51.034;7.006;2023-03-23T10:57:24;18.00;99.90
10662;DHT22;5379;51.034;7.006;2023-03-23T11:00:02;18.10;99.90
10662;DHT22;5379;51.034;7.006;2023-03-23T11:02:38;17.90;99.90
10662;DHT22;5379;51.034;7.006;2023-03-23T11:05:13;17.80;99.90
10662;DHT22;5379;51.034;7.006;2023-03-23T11:07:40;17.90;99.90
10662;DHT22;5379;51.034;7.006;2023-03-23T11:10:21;18.00;99.90
10662;DHT22;5379;51.034;7.006;2023-03-23T11:12:50;18.10;99.90
10662;DHT22;5379;51.034;7.006;2023-03-23T11:15:29;18.00;99.90
10662;DHT22;5379;51.034;7.006;2023-03-23T11:18:00;18.30;99.90
10662;DHT22;5379;51.034;7.006;2023-03-23T11:20:29;18.20;99.90
10662;DHT22;5379;51.034;7.006;2023-03-23T11:22:56;18.50;99.90
10662;DHT22;5379;51.034;7.006;2023-03-23T11:25:23;19.20;99.90
10662;DHT22;5379;51.034;7.006;2023-03-23T11:27:52;19.30;99.90
10662;DHT22;5379;51.034;7.006;2023-03-23T11:30:22;19.30;99.90
10662;DHT22;5379;51.034;7.006;2023-03-23T11:32:51;18.80;99.90
10662;DHT22;5379;51.034;7.006;2023-03-23T11:35:23;18.40;99.90
10662;DHT22;5379;51.034;7.006;2023-03-23T11:37:53;18.20;99.90
10662;DHT22;5379;51.034;7.006;2023-03-23T11:40:23;18.50;99.90
10662;DHT22;5379;51.034;7.006;2023-03-23T11:42:57;18.70;99.90
10662;DHT22;5379;51.034;7.006;2023-03-23T11:45:32;19.00;99.90
10662;DHT22;5379;51.034;7.006;2023-03-23T11:48:09;19.20;99.90
10662;DHT22;5379;51.034;7.006;2023-03-23T11:50:48;19.50;99.90
10662;DHT22;5379;51.034;7.006;2023-03-23T11:53:23;19.40;99.90
10662;DHT22;5379;51.034;7.006;2023-03-23T11:55:58;19.80;99.90
10662;DHT22;5379;51.034;7.006;2023-03-23T11:58:27;19.90;99.90
10662;DHT22;5379;51.034;7.006;2023-03-23T12:01:00;20.30;99.90
10662;DHT22;5379;51.034;7.006;2023-03-23T12:06:36;20.40;99.70
10662;DHT22;5379;51.034;7.006;2023-03-23T12:09:17;20.20;99.90
10662;DHT22;5379;51.034;7.006;2023-03-23T12:12:01;18.90;99.90
10662;DHT22;5379;51.034;7.006;2023-03-23T12:14:36;18.10;99.90
10662;DHT22;5379;51.034;7.006;2023-03-23T12:17:20;17.50;99.90
10662;DHT22;5379;51.034;7.006;2023-03-23T12:20:11;17.40;99.90
10662;DHT22;5379;51.034;7.006;2023-03-23T12:22:51;17.40;99.90
10662;DHT22;5379;51.034;7.006;2023-03-23T12:25:38;17.40;99.90
10662;DHT22;5379;51.034;7.006;2023-03-23T12:28:18;17.10;99.90
10662;DHT22;5379;51.034;7.006;2023-03-23T12:30:52;17.10;99.90
10662;DHT22;5379;51.034;7.006;2023-03-23T12:33:29;17.00;99.90
10662;DHT22;5379;51.034;7.006;2023-03-23T12:36:07;16.90;99.90
10662;DHT22;5379;51.034;7.006;2023-03-23T12:38:48;16.80;99.90
10662;DHT22;5379;51.034;7.006;2023-03-23T12:41:21;16.70;99.90
10662;DHT22;5379;51.034;7.006;2023-03-23T12:43:52;16.50;99.90
10662;DHT22;5379;51.034;7.006;2023-03-23T12:46:50;16.80;99.90
10662;DHT22;5379;51.034;7.006;2023-03-23T12:49:21;16.80;99.90
10662;DHT22;5379;51.034;7.006;2023-03-23T12:51:52;16.90;99.90
10662;DHT22;5379;51.034;7.006;2023-03-23T12:54:27;17.60;99.90
10662;DHT22;5379;51.034;7.006;2023-03-23T12:57:01;18.10;99.90
10662;DHT22;5379;51.034;7.006;2023-03-23T12:59:36;18.30;99.90
10662;DHT22;5379;51.034;7.006;2023-03-23T13:02:10;18.40;99.90
10662;DHT22;5379;51.034;7.006;2023-03-23T13:04:42;18.80;99.90
10662;DHT22;5379;51.034;7.006;2023-03-23T13:07:15;19.00;99.90
10662;DHT22;5379;51.034;7.006;2023-03-23T13:09:50;19.10;99.90
10662;DHT22;5379;51.034;7.006;2023-03-23T13:12:19;19.20;99.90
10662;DHT22;5379;51.034;7.006;2023-03-23T13:14:55;19.00;99.90
10662;DHT22;5379;51.034;7.006;2023-03-23T13:17:31;18.90;99.90
10662;DHT22;5379;51.034;7.006;2023-03-23T13:20:23;18.90;99.90
10662;DHT22;5379;51.034;7.006;2023-03-23T13:23:00;19.00;99.90
10662;DHT22;5379;51.034;7.006;2023-03-23T13:25:44;19.00;99.90
10662;DHT22;5379;51.034;7.006;2023-03-23T13:28:15;19.20;99.90
10662;DHT22;5379;51.034;7.006;2023-03-23T13:30:59;19.50;99.90
10662;DHT22;5379;51.034;7.006;2023-03-23T13:33:30;19.80;99.90
10662;DHT22;5379;51.034;7.006;2023-03-23T13:36:08;19.60;99.90
10662;DHT22;5379;51.034;7.006;2023-03-23T13:38:35;19.70;99.90
10662;DHT22;5379;51.034;7.006;2023-03-23T13:41:10;20.10;99.90
10662;DHT22;5379;51.034;7.006;2023-03-23T13:43:39;20.40;99.90
10662;DHT22;5379;51.034;7.006;2023-03-23T13:46:22;20.70;99.90
10662;DHT22;5379;51.034;7.006;2023-03-23T13:49:02;21.00;99.90
10662;DHT22;5379;51.034;7.006;2023-03-23T13:51:36;21.00;99.90
10662;DHT22;5379;51.034;7.006;2023-03-23T13:54:19;21.20;99.90
10662;DHT22;5379;51.034;7.006;2023-03-23T13:56:55;21.40;99.90
10662;DHT22;5379;51.034;7.006;2023-03-23T13:59:34;21.20;99.90
10662;DHT22;5379;51.034;7.006;2023-03-23T14:02:26;21.20;99.90
10662;DHT22;5379;51.034;7.006;2023-03-23T14:04:54;21.40;99.90
10662;DHT22;5379;51.034;7.006;2023-03-23T14:07:21;21.30;99.80
10662;DHT22;5379;51.034;7.006;2023-03-23T14:09:51;21.10;99.90
10662;DHT22;5379;51.034;7.006;2023-03-23T14:12:20;21.40;99.90
10662;DHT22;5379;51.034;7.006;2023-03-23T14:14:51;21.30;99.90
10662;DHT22;5379;51.034;7.006;2023-03-23T14:17:25;21.20;99.90
10662;DHT22;5379;51.034;7.006;2023-03-23T14:19:54;21.10;99.90
10662;DHT22;5379;51.034;7.006;2023-03-23T14:22:24;21.10;99.90
10662;DHT22;5379;51.034;7.006;2023-03-23T14:24:58;20.70;99.90
10662;DHT22;5379;51.034;7.006;2023-03-23T14:27:27;20.80;99.90
10662;DHT22;5379;51.034;7.006;2023-03-23T14:30:02;20.80;99.90
10662;DHT22;5379;51.034;7.006;2023-03-23T14:32:31;20.90;99.90
10662;DHT22;5379;51.034;7.006;2023-03-23T14:34:59;20.60;99.90
10662;DHT22;5379;51.034;7.006;2023-03-23T14:37:27;20.40;99.90
10662;DHT22;5379;51.034;7.006;2023-03-23T14:39:55;20.20;99.90
10662;DHT22;5379;51.034;7.006;2023-03-23T14:42:28;20.10;99.90
10662;DHT22;5379;51.034;7.006;2023-03-23T14:44:56;20.00;99.90
10662;DHT22;5379;51.034;7.006;2023-03-23T14:47:26;19.90;99.90
10662;DHT22;5379;51.034;7.006;2023-03-23T14:49:55;19.80;99.90
10662;DHT22;5379;51.034;7.006;2023-03-23T14:52:25;19.60;99.90
10662;DHT22;5379;51.034;7.006;2023-03-23T14:54:52;19.30;99.90
10662;DHT22;5379;51.034;7.006;2023-03-23T14:57:26;19.10;99.90
10662;DHT22;5379;51.034;7.006;2023-03-23T14:59:55;18.90;99.90
10662;DHT22;5379;51.034;7.006;2023-03-23T15:02:24;18.80;99.90
10662;DHT22;5379;51.034;7.006;2023-03-23T15:04:56;18.70;99.90
10662;DHT22;5379;51.034;7.006;2023-03-23T15:07:26;18.70;99.90
10662;DHT22;5379;51.034;7.006;2023-03-23T15:09:53;18.40;99.90
10662;DHT22;5379;51.034;7.006;2023-03-23T15:12:22;18.30;99.90
10662;DHT22;5379;51.034;7.006;2023-03-23T15:14:53;18.40;99.90
10662;DHT22;5379;51.034;7.006;2023-03-23T15:17:24;18.40;99.90
10662;DHT22;5379;51.034;7.006;2023-03-23T15:19:53;18.40;99.90
10662;DHT22;5379;51.034;7.006;2023-03-23T15:22:23;18.50;99.90
10662;DHT22;5379;51.034;7.006;2023-03-23T15:24:52;18.50;99.90
10662;DHT22;5379;51.034;7.006;2023-03-23T15:27:26;18.60;99.90
10662;DHT22;5379;51.034;7.006;2023-03-23T15:29:55;18.50;99.90
10662;DHT22;5379;51.034;7.006;2023-03-23T15:32:29;18.50;99.90
10662;DHT22;5379;51.034;7.006;2023-03-23T15:34:58;18.70;99.90
10662;DHT22;5379;51.034;7.006;2023-03-23T15:37:31;18.80;99.90
10662;DHT22;5379;51.034;7.006;2023-03-23T15:39:59;19.40;99.90
10662;DHT22;5379;51.034;7.006;2023-03-23T15:42:29;19.50;99.90
10662;DHT22;5379;51.034;7.006;2023-03-23T15:45:04;19.90;99.90
10662;DHT22;5379;51.034;7.006;2023-03-23T15:47:38;20.00;99.90
10662;DHT22;5379;51.034;7.006;2023-03-23T15:50:13;20.50;99.90
10662;DHT22;5379;51.034;7.006;2023-03-23T15:52:41;20.70;99.90
10662;DHT22;5379;51.034;7.006;2023-03-23T15:55:35;20.60;99.50
10662;DHT22;5379;51.034;7.006;2023-03-23T15:58:09;20.60;99.90
10662;DHT22;5379;51.034;7.006;2023-03-23T16:00:37;20.80;99.40
10662;DHT22;5379;51.034;7.006;2023-03-23T16:03:10;20.50;99.90
10662;DHT22;5379;51.034;7.006;2023-03-23T16:05:37;20.00;99.90
10662;DHT22;5379;51.034;7.006;2023-03-23T16:08:07;19.80;99.90
10662;DHT22;5379;51.034;7.006;2023-03-23T16:10:34;19.80;99.90
10662;DHT22;5379;51.034;7.006;2023-03-23T16:13:01;20.00;99.90
10662;DHT22;5379;51.034;7.006;2023-03-23T16:15:30;20.00;99.90
10662;DHT22;5379;51.034;7.006;2023-03-23T16:17:57;20.20;99.90
10662;DHT22;5379;51.034;7.006;2023-03-23T16:20:27;20.30;99.90
10662;DHT22;5379;51.034;7.006;2023-03-23T16:22:54;20.10;98.90
10662;DHT22;5379;51.034;7.006;2023-03-23T16:25:21;20.30;99.40
10662;DHT22;5379;51.034;7.006;2023-03-23T16:27:48;20.60;99.40
10662;DHT22;5379;51.034;7.006;2023-03-23T16:30:17;20.60;98.60
10662;DHT22;5379;51.034;7.006;2023-03-23T16:32:45;20.40;98.90
10662;DHT22;5379;51.034;7.006;2023-03-23T16:35:12;20.50;99.90
10662;DHT22;5379;51.034;7.006;2023-03-23T16:37:44;20.70;98.70
10662;DHT22;5379;51.034;7.006;2023-03-23T16:40:13;20.40;98.50
10662;DHT22;5379;51.034;7.006;2023-03-23T16:42:40;20.40;99.30
10662;DHT22;5379;51.034;7.006;2023-03-23T16:45:07;20.30;99.40
10662;DHT22;5379;51.034;7.006;2023-03-23T16:47:35;20.60;99.50
10662;DHT22;5379;51.034;7.006;2023-03-23T16:50:03;20.60;99.80
10662;DHT22;5379;51.034;7.006;2023-03-23T16:52:31;20.60;99.80
10662;DHT22;5379;51.034;7.006;2023-03-23T16:54:59;20.90;99.20
10662;DHT22;5379;51.034;7.006;2023-03-23T16:57:26;20.90;99.60
10662;DHT22;5379;51.034;7.006;2023-03-23T16:59:54;20.90;97.60
10662;DHT22;5379;51.034;7.006;2023-03-23T17:02:23;21.00;98.10
10662;DHT22;5379;51.034;7.006;2023-03-23T17:04:50;20.70;97.90
10662;DHT22;5379;51.034;7.006;2023-03-23T17:07:17;20.50;97.90
10662;DHT22;5379;51.034;7.006;2023-03-23T17:09:44;20.00;98.70
10662;DHT22;5379;51.034;7.006;2023-03-23T17:12:13;20.20;98.60
10662;DHT22;5379;51.034;7.006;2023-03-23T17:14:40;20.60;99.50
10662;DHT22;5379;51.034;7.006;2023-03-23T17:17:08;20.80;99.10
10662;DHT22;5379;51.034;7.006;2023-03-23T17:19:35;20.50;98.50
10662;DHT22;5379;51.034;7.006;2023-03-23T17:22:02;20.60;98.20
10662;DHT22;5379;51.034;7.006;2023-03-23T17:24:29;20.90;98.70
10662;DHT22;5379;51.034;7.006;2023-03-23T17:26:56;21.00;98.50
10662;DHT22;5379;51.034;7.006;2023-03-23T17:29:24;21.00;97.20
10662;DHT22;5379;51.034;7.006;2023-03-23T17:31:51;21.10;97.80
10662;DHT22;5379;51.034;7.006;2023-03-23T17:34:18;21.10;97.00
10662;DHT22;5379;51.034;7.006;2023-03-23T17:36:45;21.20;98.50
10662;DHT22;5379;51.034;7.006;2023-03-23T17:39:12;20.90;97.70
10662;DHT22;5379;51.034;7.006;2023-03-23T17:41:39;20.60;98.70
10662;DHT22;5379;51.034;7.006;2023-03-23T17:44:06;20.60;98.30
10662;DHT22;5379;51.034;7.006;2023-03-23T17:46:34;20.60;97.90
10662;DHT22;5379;51.034;7.006;2023-03-23T17:49:01;20.20;97.20
10662;DHT22;5379;51.034;7.006;2023-03-23T17:51:29;19.90;97.50
10662;DHT22;5379;51.034;7.006;2023-03-23T17:53:56;19.90;97.90
10662;DHT22;5379;51.034;7.006;2023-03-23T17:56:23;19.90;97.50
10662;DHT22;5379;51.034;7.006;2023-03-23T17:58:50;20.20;98.20
10662;DHT22;5379;51.034;7.006;2023-03-23T18:01:17;19.90;97.40
10662;DHT22;5379;51.034;7.006;2023-03-23T18:03:45;19.80;97.50
10662;DHT22;5379;51.034;7.006;2023-03-23T18:06:12;19.40;98.00
10662;DHT22;5379;51.034;7.006;2023-03-23T18:08:39;19.50;98.60
10662;DHT22;5379;51.034;7.006;2023-03-23T18:11:07;19.40;98.50
10662;DHT22;5379;51.034;7.006;2023-03-23T18:13:35;19.40;98.20
10662;DHT22;5379;51.034;7.006;2023-03-23T18:16:03;19.80;99.40
10662;DHT22;5379;51.034;7.006;2023-03-23T18:18:30;19.40;97.90
10662;DHT22;5379;51.034;7.006;2023-03-23T18:21:02;18.90;98.40
10662;DHT22;5379;51.034;7.006;2023-03-23T18:23:31;18.80;98.80
10662;DHT22;5379;51.034;7.006;2023-03-23T18:26:01;18.70;98.90
10662;DHT22;5379;51.034;7.006;2023-03-23T18:28:32;18.60;99.00
10662;DHT22;5379;51.034;7.006;2023-03-23T18:31:02;18.50;98.80
10662;DHT22;5379;51.034;7.006;2023-03-23T18:33:29;18.60;99.10
10662;DHT22;5379;51.034;7.006;2023-03-23T18:35:57;18.50;98.90
10662;DHT22;5379;51.034;7.006;2023-03-23T18:38:26;18.30;98.90
10662;DHT22;5379;51.034;7.006;2023-03-23T18:40:54;18.30;99.70
10662;DHT22;5379;51.034;7.006;2023-03-23T18:43:21;18.20;99.00
10662;DHT22;5379;51.034;7.006;2023-03-23T18:45:48;18.30;99.40
10662;DHT22;5379;51.034;7.006;2023-03-23T18:48:16;18.40;99.20
10662;DHT22;5379;51.034;7.006;2023-03-23T18:50:45;18.40;99.20
10662;DHT22;5379;51.034;7.006;2023-03-23T18:53:14;18.40;99.10
10662;DHT22;5379;51.034;7.006;2023-03-23T18:55:42;18.40;99.70
10662;DHT22;5379;51.034;7.006;2023-03-23T18:58:10;18.60;99.40
10662;DHT22;5379;51.034;7.006;2023-03-23T19:00:39;18.60;98.80
10662;DHT22;5379;51.034;7.006;2023-03-23T19:03:06;18.70;99.10
10662;DHT22;5379;51.034;7.006;2023-03-23T19:05:34;18.90;99.50
10662;DHT22;5379;51.034;7.006;2023-03-23T19:08:03;18.80;98.70
10662;DHT22;5379;51.034;7.006;2023-03-23T19:10:31;19.00;99.10
10662;DHT22;5379;51.034;7.006;2023-03-23T19:13:02;18.90;98.50
10662;DHT22;5379;51.034;7.006;2023-03-23T19:15:30;18.90;98.90
10662;DHT22;5379;51.034;7.006;2023-03-23T19:17:56;18.80;99.90
10662;DHT22;5379;51.034;7.006;2023-03-23T19:20:24;18.80;99.20
10662;DHT22;5379;51.034;7.006;2023-03-23T19:22:51;18.80;99.50
10662;DHT22;5379;51.034;7.006;2023-03-23T19:25:19;18.90;98.90
10662;DHT22;5379;51.034;7.006;2023-03-23T19:27:46;19.00;99.60
10662;DHT22;5379;51.034;7.006;2023-03-23T19:30:15;19.00;99.00
10662;DHT22;5379;51.034;7.006;2023-03-23T19:32:42;19.00;99.30
10662;DHT22;5379;51.034;7.006;2023-03-23T19:35:10;18.80;99.90
10662;DHT22;5379;51.034;7.006;2023-03-23T19:37:37;19.00;99.20
10662;DHT22;5379;51.034;7.006;2023-03-23T19:40:05;18.80;99.80
10662;DHT22;5379;51.034;7.006;2023-03-23T19:42:34;18.70;99.60
10662;DHT22;5379;51.034;7.006;2023-03-23T19:45:01;18.80;99.90
10662;DHT22;5379;51.034;7.006;2023-03-23T19:47:29;18.80;99.90
10662;DHT22;5379;51.034;7.006;2023-03-23T19:49:56;18.60;99.90
10662;DHT22;5379;51.034;7.006;2023-03-23T19:52:24;18.50;99.90
10662;DHT22;5379;51.034;7.006;2023-03-23T19:54:52;18.60;99.90
10662;DHT22;5379;51.034;7.006;2023-03-23T19:57:19;18.70;99.90
10662;DHT22;5379;51.034;7.006;2023-03-23T19:59:47;18.80;99.90
10662;DHT22;5379;51.034;7.006;2023-03-23T20:02:14;19.00;99.90
10662;DHT22;5379;51.034;7.006;2023-03-23T20:04:43;19.20;99.70
10662;DHT22;5379;51.034;7.006;2023-03-23T20:07:10;19.40;99.90
10662;DHT22;5379;51.034;7.006;2023-03-23T20:09:37;19.70;99.90
10662;DHT22;5379;51.034;7.006;2023-03-23T20:12:04;19.80;99.90
10662;DHT22;5379;51.034;7.006;2023-03-23T20:14:32;20.10;98.90
10662;DHT22;5379;51.034;7.006;2023-03-23T20:16:59;20.00;98.20
10662;DHT22;5379;51.034;7.006;2023-03-23T20:19:26;19.70;98.70
10662;DHT22;5379;51.034;7.006;2023-03-23T20:21:55;19.70;99.90
10662;DHT22;5379;51.034;7.006;2023-03-23T20:24:22;19.30;98.90
10662;DHT22;5379;51.034;7.006;2023-03-23T20:26:48;19.50;98.60
10662;DHT22;5379;51.034;7.006;2023-03-23T20:29:15;19.50;99.90
10662;DHT22;5379;51.034;7.006;2023-03-23T20:31:42;19.50;98.80
10662;DHT22;5379;51.034;7.006;2023-03-23T20:34:12;19.20;99.40
10662;DHT22;5379;51.034;7.006;2023-03-23T20:36:43;19.20;99.60